Gobernador Roca, Argentina
Current Conditions -  °F | °C
As of 5:00 PM on Sunday 21 Dec 2014 (Local Time) from SGEN Reporting Station
Broken Clouds Broken Clouds  
Wind Chill: 68°   Ceiling: 1500
Heat Index: 68°   Visibility: 6mi
Dew Point: 64°   Wind: 0mph
Humidity: 88%   Direction: NA
Pressure: 29.62"   Gusts: NA
Location:  27.18°S, 55.47°W
Report Text: SGEN 212000Z 00000KT 9999 BKN015 BKN070 20/18 Q1003
Loading
Personal Weather Stations






























Interactive Weather Map New forecast layout! Learn more

10-Day Weather Forecast

Advertisements
Track Severe Weather on mobile